Terminal Aerodrome Forecast
Issued by NWS Blacksburg, VA

Current Version | Previous Version | Graphics & Text | Print | Product List | Glossary On
Versions: 1 2 3 4 5 6 7 8 9 10 11 12 13 14 15 16 17 18 19 20 21 22 23 24 25 26 27 28 29 30 31 32 33 34 35 36 37 38 39 40 41 42 43 44 45 46 47 48 49 50
180
FTUS41 KRNK 160540 AAC
TAFBLF
TAF AMD
KBLF 160540Z 1606/1706 30007KT 6SM -SHRA BKN006 OVC018
     FM160800 31008KT P6SM BKN015
      TEMPO 1608/1610 4SM -SHRA OVC010
     FM161200 32009KT P6SM BKN035
     FM170300 34005KT P6SM FEW050=

USA.gov is the U.S. government's official web portal to all federal, state and local government web resources and services.